Time;durP1;ratioP1;P1;durP2;ratioP2;P2;SDS_P1;SDS_P2;PMS_P1;PMS_P2;Temp;Humidity;BMP_temperature;BMP_pressure;BME280_temperature;BME280_humidity;BME280_pressure;Samples;Min_cycle;Max_cycle;Signal;HPM_P1;HPM_P2
2021/04/01 00:01:12;;;;;;;6.22;3.30;;;;;;;;;;4977867;28;20088;-76
2021/04/01 00:03:39;;;;;;;7.50;3.30;;;;;;;;;;4977706;28;20034;-77
2021/04/01 00:06:05;;;;;;;6.20;2.88;;;;;;;;;;4977457;28;20556;-77
2021/04/01 00:08:31;;;;;;;8.13;3.72;;;;;;;;;;4995073;28;20027;-77
2021/04/01 00:11:00;;;;;;;9.13;3.58;;;;;;;;;;4995251;28;20026;-75
2021/04/01 00:13:26;;;;;;;7.72;3.83;;;;;;;;;;4995087;28;20149;-78
2021/04/01 00:15:54;;;;;;;6.05;3.45;;;;;;;;;;4994378;28;20103;-76
2021/04/01 00:18:21;;;;;;;7.18;3.38;;;;;;;;;;4973259;28;20113;-77
2021/04/01 00:20:47;;;;;;;5.47;3.38;;;;;;;;;;4975542;28;20109;-76
2021/04/01 00:23:14;;;;;;;8.20;3.67;;;;;;;;;;4974003;28;20550;-74
2021/04/01 00:25:40;;;;;;;9.90;3.63;;;;;;;;;;4973981;28;20113;-77
2021/04/01 00:28:06;;;;;;;6.55;3.22;;;;;;;;;;4975268;28;20023;-75
2021/04/01 00:30:32;;;;;;;7.72;3.40;;;;;;;;;;4975335;28;20029;-76
2021/04/01 00:32:58;;;;;;;6.28;3.60;;;;;;;;;;4973998;28;20037;-77
2021/04/01 00:35:25;;;;;;;6.18;3.65;;;;;;;;;;4975227;28;20030;-76
2021/04/01 00:37:51;;;;;;;6.28;3.28;;;;;;;;;;4975340;28;20102;-74
2021/04/01 00:40:18;;;;;;;7.30;4.28;;;;;;;;;;4975228;28;20023;-76
2021/04/01 00:42:44;;;;;;;6.47;3.30;;;;;;;;;;4975250;28;20019;-76
2021/04/01 00:45:11;;;;;;;6.65;3.72;;;;;;;;;;4975008;28;20023;-76
2021/04/01 00:47:38;;;;;;;5.68;3.10;;;;;;;;;;4975028;28;20043;-75
2021/04/01 00:50:06;;;;;;;5.30;2.97;;;;;;;;;;4975125;28;20476;-73
2021/04/01 00:52:32;;;;;;;6.28;3.15;;;;;;;;;;4974874;28;20088;-76
2021/04/01 00:54:58;;;;;;;7.45;3.80;;;;;;;;;;4974736;28;20019;-76
2021/04/01 00:57:24;;;;;;;6.55;3.60;;;;;;;;;;4974767;28;20019;-76
2021/04/01 00:59:51;;;;;;;6.93;4.00;;;;;;;;;;4974598;28;20049;-76
2021/04/01 01:02:17;;;;;;;6.75;3.50;;;;;;;;;;4974514;28;20038;-76
2021/04/01 01:04:44;;;;;;;5.70;3.28;;;;;;;;;;4974456;28;20113;-74
2021/04/01 01:07:10;;;;;;;8.85;3.78;;;;;;;;;;4974715;28;20027;-76
2021/04/01 01:09:36;;;;;;;7.03;3.83;;;;;;;;;;4974631;28;20611;-74
2021/04/01 01:12:02;;;;;;;6.70;3.60;;;;;;;;;;4973306;28;20022;-76
2021/04/01 01:14:28;;;;;;;8.60;3.40;;;;;;;;;;4973208;28;20023;-75
2021/04/01 01:16:54;;;;;;;9.00;3.38;;;;;;;;;;4974550;28;20027;-77
2021/04/01 01:19:21;;;;;;;5.80;3.70;;;;;;;;;;4993010;28;20083;-76
2021/04/01 01:21:47;;;;;;;5.50;3.45;;;;;;;;;;4976256;28;20030;-76
2021/04/01 01:24:17;;;;;;;6.20;3.25;;;;;;;;;;4993765;28;20105;-77
2021/04/01 01:26:43;;;;;;;6.75;3.72;;;;;;;;;;4976231;28;20128;-74
2021/04/01 01:29:10;;;;;;;11.32;3.30;;;;;;;;;;4989451;28;20651;-75
2021/04/01 01:31:40;;;;;;;5.07;3.10;;;;;;;;;;4975185;28;20453;-77
2021/04/01 01:34:06;;;;;;;6.25;3.78;;;;;;;;;;4992552;28;20022;-74
2021/04/01 01:36:32;;;;;;;6.85;3.70;;;;;;;;;;4992937;28;20635;-74
2021/04/01 01:38:58;;;;;;;7.50;3.30;;;;;;;;;;4992800;28;20029;-74
2021/04/01 01:41:24;;;;;;;6.95;3.28;;;;;;;;;;4975159;28;20022;-77
2021/04/01 01:43:50;;;;;;;6.88;3.78;;;;;;;;;;4992609;28;20027;-74
2021/04/01 01:46:16;;;;;;;5.85;3.17;;;;;;;;;;4992726;28;20041;-77
2021/04/01 01:48:42;;;;;;;6.72;3.53;;;;;;;;;;4992720;28;20113;-75
2021/04/01 01:51:08;;;;;;;7.28;3.50;;;;;;;;;;4992573;28;20154;-75
2021/04/01 01:53:35;;;;;;;7.63;3.78;;;;;;;;;;4992391;28;20535;-74
2021/04/01 01:56:01;;;;;;;7.40;3.45;;;;;;;;;;4992529;28;20088;-75
2021/04/01 01:58:27;;;;;;;5.95;3.25;;;;;;;;;;4975579;28;20026;-76
2021/04/01 02:00:55;;;;;;;8.90;3.80;;;;;;;;;;4975588;28;20022;-74
2021/04/01 02:03:23;;;;;;;7.65;3.90;;;;;;;;;;4975179;28;20033;-75
2021/04/01 02:05:49;;;;;;;6.00;3.15;;;;;;;;;;4992007;28;20084;-74
2021/04/01 02:08:17;;;;;;;5.78;3.40;;;;;;;;;;4974669;28;20109;-74
2021/04/01 02:10:44;;;;;;;5.18;3.05;;;;;;;;;;4992287;28;20041;-75
2021/04/01 02:13:11;;;;;;;6.43;3.90;;;;;;;;;;4974617;28;20023;-75
2021/04/01 02:15:39;;;;;;;6.68;3.60;;;;;;;;;;4992308;28;20084;-76
2021/04/01 02:18:12;;;;;;;5.43;3.00;;;;;;;;;;4991982;28;20121;-74
2021/04/01 02:20:43;;;;;;;5.13;3.30;;;;;;;;;;4992009;28;20030;-75
2021/04/01 02:23:10;;;;;;;5.50;3.13;;;;;;;;;;4991865;28;20030;-74
2021/04/01 02:25:36;;;;;;;5.68;3.45;;;;;;;;;;4992053;28;20030;-77
2021/04/01 02:28:02;;;;;;;5.40;3.17;;;;;;;;;;4992013;28;20023;-75
2021/04/01 02:30:28;;;;;;;5.35;3.30;;;;;;;;;;4992160;28;20168;-76
2021/04/01 02:32:55;;;;;;;7.15;3.83;;;;;;;;;;4991985;28;20053;-77
2021/04/01 02:35:21;;;;;;;5.97;3.17;;;;;;;;;;4975072;28;20030;-74
2021/04/01 02:37:47;;;;;;;5.55;2.97;;;;;;;;;;4975094;28;20112;-75
2021/04/01 02:40:14;;;;;;;5.57;3.47;;;;;;;;;;4991637;28;20033;-77
2021/04/01 02:42:41;;;;;;;6.10;3.30;;;;;;;;;;4992110;28;20097;-76
2021/04/01 02:45:07;;;;;;;7.03;3.60;;;;;;;;;;4992346;28;20050;-75
2021/04/01 02:47:33;;;;;;;6.32;3.55;;;;;;;;;;4992506;28;20040;-77
2021/04/01 02:49:59;;;;;;;6.25;3.65;;;;;;;;;;4992480;28;20559;-73
2021/04/01 02:52:25;;;;;;;5.88;3.45;;;;;;;;;;4974958;28;20127;-76
2021/04/01 02:54:52;;;;;;;5.35;3.20;;;;;;;;;;4992176;28;20080;-77
2021/04/01 02:57:19;;;;;;;7.18;3.40;;;;;;;;;;4992258;28;20015;-74
2021/04/01 02:59:45;;;;;;;6.30;3.00;;;;;;;;;;4992212;28;20541;-77
2021/04/01 03:02:12;;;;;;;4.88;2.70;;;;;;;;;;4974791;28;20030;-76
2021/04/01 03:04:39;;;;;;;6.78;3.30;;;;;;;;;;4992066;28;20030;-76
2021/04/01 03:07:05;;;;;;;8.68;3.28;;;;;;;;;;4992185;28;20089;-75
2021/04/01 03:09:32;;;;;;;4.75;2.90;;;;;;;;;;4992314;28;20025;-75
2021/04/01 03:11:58;;;;;;;4.95;2.95;;;;;;;;;;4992121;28;20030;-75
2021/04/01 03:14:24;;;;;;;5.72;3.03;;;;;;;;;;4974703;28;20103;-75
2021/04/01 03:16:50;;;;;;;5.35;3.05;;;;;;;;;;4974636;28;20403;-75
2021/04/01 03:19:16;;;;;;;5.05;3.05;;;;;;;;;;4991903;28;20050;-76
2021/04/01 03:21:43;;;;;;;7.22;3.08;;;;;;;;;;4991912;28;20146;-74
2021/04/01 03:24:10;;;;;;;5.70;3.00;;;;;;;;;;4991796;28;20410;-77
2021/04/01 03:26:36;;;;;;;6.75;3.05;;;;;;;;;;4974414;28;20069;-75
2021/04/01 03:29:02;;;;;;;4.97;2.85;;;;;;;;;;4988371;28;20018;-77
2021/04/01 03:31:28;;;;;;;5.90;3.42;;;;;;;;;;4989951;28;20026;-77
2021/04/01 03:33:54;;;;;;;6.70;3.38;;;;;;;;;;4974424;28;20022;-77
2021/04/01 03:36:20;;;;;;;4.90;2.60;;;;;;;;;;4991804;28;20038;-74
2021/04/01 03:38:47;;;;;;;6.60;3.33;;;;;;;;;;4974490;28;20022;-76
2021/04/01 03:41:13;;;;;;;5.80;2.88;;;;;;;;;;4991821;28;20057;-77
2021/04/01 03:43:40;;;;;;;5.65;2.78;;;;;;;;;;4991919;28;20022;-77
2021/04/01 03:46:07;;;;;;;5.68;2.83;;;;;;;;;;4991894;28;20034;-75
2021/04/01 03:48:33;;;;;;;4.97;2.90;;;;;;;;;;4991733;28;20098;-77
2021/04/01 03:51:00;;;;;;;5.47;2.85;;;;;;;;;;4975517;28;20058;-74
2021/04/01 03:53:26;;;;;;;7.85;3.10;;;;;;;;;;4995478;28;20093;-75
2021/04/01 03:55:52;;;;;;;5.43;2.65;;;;;;;;;;4995457;28;20114;-74
2021/04/01 04:14:17;;;;;;;5.82;2.75;;;;;;;;;;4995089;28;20112;-78
2021/04/01 04:16:43;;;;;;;6.72;2.95;;;;;;;;;;4977476;28;20037;-76
2021/04/01 04:19:09;;;;;;;7.40;3.25;;;;;;;;;;4994759;28;20050;-75
2021/04/01 04:21:36;;;;;;;4.97;2.80;;;;;;;;;;4977567;28;20054;-74
2021/04/01 04:24:04;;;;;;;5.75;2.97;;;;;;;;;;4977278;28;20467;-75
2021/04/01 04:26:30;;;;;;;6.10;3.00;;;;;;;;;;4994888;28;20395;-77
2021/04/01 04:28:56;;;;;;;5.13;2.88;;;;;;;;;;4977399;28;20454;-74
2021/04/01 04:31:22;;;;;;;4.85;2.80;;;;;;;;;;4977285;28;20027;-74
2021/04/01 04:33:48;;;;;;;7.05;2.85;;;;;;;;;;4994662;28;20019;-75
2021/04/01 04:36:15;;;;;;;5.60;3.00;;;;;;;;;;4977316;28;20027;-77
2021/04/01 04:38:41;;;;;;;6.22;2.97;;;;;;;;;;4994630;28;20479;-77
2021/04/01 04:41:07;;;;;;;5.68;2.70;;;;;;;;;;4994661;28;20030;-75
2021/04/01 04:43:35;;;;;;;6.05;2.58;;;;;;;;;;4994640;28;20096;-74
2021/04/01 04:46:01;;;;;;;5.65;2.70;;;;;;;;;;4994611;28;20034;-77
2021/04/01 04:48:27;;;;;;;5.93;3.05;;;;;;;;;;4976948;28;20029;-73
2021/04/01 04:50:54;;;;;;;7.50;3.42;;;;;;;;;;4976807;28;20491;-74
2021/04/01 04:53:20;;;;;;;7.30;3.20;;;;;;;;;;4976688;28;20352;-75
2021/04/01 05:08:57;;;;;;;7.22;2.80;;;;;;;;;;4993990;28;20094;-76
2021/04/01 05:11:25;;;;;;;7.68;3.30;;;;;;;;;;4994110;28;20026;-77
2021/04/01 05:13:51;;;;;;;7.03;3.20;;;;;;;;;;4993911;28;20077;-75
2021/04/01 05:16:18;;;;;;;5.20;2.92;;;;;;;;;;4993759;28;20026;-77
2021/04/01 05:18:46;;;;;;;5.45;2.83;;;;;;;;;;4993579;28;20097;-76
2021/04/01 05:21:13;;;;;;;6.03;2.90;;;;;;;;;;4993833;28;20018;-77
2021/04/01 05:23:49;;;;;;;5.82;2.70;;;;;;;;;;4993572;28;20018;-77
2021/04/01 05:28:43;;;;;;;4.78;2.55;;;;;;;;;;4993560;28;20027;-77
2021/04/01 05:31:11;;;;;;;6.95;3.17;;;;;;;;;;4983423;28;20081;-76
2021/04/01 05:33:43;;;;;;;7.35;2.97;;;;;;;;;;4993415;28;20471;-76
2021/04/01 05:36:10;;;;;;;5.63;3.28;;;;;;;;;;4993646;28;20026;-75
2021/04/01 05:38:38;;;;;;;5.85;3.20;;;;;;;;;;4975785;28;20384;-75
2021/04/01 05:41:04;;;;;;;5.45;2.60;;;;;;;;;;4993134;28;20127;-76
2021/04/01 05:43:35;;;;;;;6.38;2.90;;;;;;;;;;4975733;28;20022;-77
2021/04/01 05:46:13;;;;;;;7.75;3.50;;;;;;;;;;4993237;28;20489;-76
2021/04/01 05:48:49;;;;;;;5.50;3.28;;;;;;;;;;4993442;28;20101;-76
2021/04/01 06:01:58;;;;;;;9.88;3.90;;;;;;;;;;4993353;28;20092;-77
2021/04/01 06:04:31;;;;;;;6.65;3.42;;;;;;;;;;4992487;28;20018;-76
2021/04/01 06:07:02;;;;;;;8.10;3.08;;;;;;;;;;4992110;28;20046;-76
2021/04/01 06:09:39;;;;;;;7.63;3.20;;;;;;;;;;4974254;28;20046;-76
2021/04/01 06:12:06;;;;;;;8.40;3.28;;;;;;;;;;4992338;28;20022;-77
2021/04/01 06:14:38;;;;;;;7.18;3.50;;;;;;;;;;4974712;28;20218;-76
2021/04/01 06:17:10;;;;;;;6.32;3.38;;;;;;;;;;4974408;28;20038;-76
2021/04/01 06:19:38;;;;;;;10.25;4.60;;;;;;;;;;4992249;28;20033;-77
2021/04/01 06:22:05;;;;;;;6.78;3.15;;;;;;;;;;4992145;28;20026;-76
2021/04/01 06:24:32;;;;;;;7.00;3.63;;;;;;;;;;4974393;28;20037;-77
2021/04/01 06:27:14;;;;;;;6.43;3.33;;;;;;;;;;4991900;28;20034;-77
2021/04/01 06:29:41;;;;;;;8.80;4.15;;;;;;;;;;4991758;28;20014;-76
2021/04/01 06:32:23;;;;;;;8.95;3.60;;;;;;;;;;4992311;28;20379;-77
2021/04/01 06:34:51;;;;;;;6.40;3.40;;;;;;;;;;4992487;28;20045;-76
2021/04/01 06:37:26;;;;;;;11.88;3.80;;;;;;;;;;4974925;28;20026;-75
2021/04/01 06:40:01;;;;;;;7.88;3.92;;;;;;;;;;4992542;28;20014;-75
2021/04/01 06:42:34;;;;;;;7.30;3.70;;;;;;;;;;4992327;28;20125;-76
2021/04/01 06:45:08;;;;;;;9.48;3.80;;;;;;;;;;4992184;28;20061;-76
2021/04/01 06:47:36;;;;;;;10.65;3.97;;;;;;;;;;4992344;28;20026;-74
2021/04/01 06:50:10;;;;;;;5.50;3.25;;;;;;;;;;4974755;28;20053;-75
2021/04/01 06:52:44;;;;;;;9.57;3.60;;;;;;;;;;4992099;28;20494;-75
2021/04/01 06:55:31;;;;;;;6.85;3.47;;;;;;;;;;4992181;28;20348;-75
2021/04/01 06:58:12;;;;;;;6.55;3.20;;;;;;;;;;4992257;28;20061;-75
2021/04/01 07:00:55;;;;;;;6.55;3.28;;;;;;;;;;4991831;28;20037;-76
2021/04/01 07:03:28;;;;;;;10.38;3.60;;;;;;;;;;4974348;28;20080;-75
2021/04/01 07:08:48;;;;;;;9.55;3.40;;;;;;;;;;4992173;28;20026;-75
2021/04/01 07:14:08;;;;;;;6.68;3.47;;;;;;;;;;4980129;28;20034;-77
2021/04/01 07:47:16;;;;;;;13.15;4.55;;;;;;;;;;4995242;28;20093;-76
2021/04/01 07:49:44;;;;;;;11.55;5.22;;;;;;;;;;4977573;28;20072;-77
2021/04/01 07:52:11;;;;;;;10.10;4.80;;;;;;;;;;4977517;28;20034;-76
2021/04/01 07:54:56;;;;;;;15.50;5.55;;;;;;;;;;4961702;28;20026;-75
2021/04/01 08:03:06;;;;;;;16.25;6.45;;;;;;;;;;4976071;28;20407;-79
2021/04/01 08:05:33;;;;;;;19.73;5.45;;;;;;;;;;4974726;28;20023;-79
2021/04/01 08:08:08;;;;;;;16.67;5.68;;;;;;;;;;4975434;28;20030;-79
2021/04/01 08:10:44;;;;;;;22.52;5.53;;;;;;;;;;4975292;28;20062;-79
2021/04/01 08:13:13;;;;;;;16.45;5.50;;;;;;;;;;4994495;28;20022;-79
2021/04/01 08:15:52;;;;;;;14.75;6.10;;;;;;;;;;4977568;28;20034;-79
2021/04/01 08:18:27;;;;;;;14.18;5.35;;;;;;;;;;4994319;28;20045;-79
2021/04/01 08:20:57;;;;;;;13.18;5.85;;;;;;;;;;4994638;28;20026;-79
2021/04/01 08:23:30;;;;;;;10.55;5.28;;;;;;;;;;4976866;28;20034;-79
2021/04/01 08:28:56;;;;;;;14.20;4.95;;;;;;;;;;4994476;28;20030;-79
2021/04/01 08:36:22;;;;;;;24.42;6.68;;;;;;;;;;4988303;28;20375;-77
2021/04/01 08:38:48;;;;;;;27.52;5.47;;;;;;;;;;4975698;28;20037;-76
2021/04/01 08:41:22;;;;;;;23.15;5.65;;;;;;;;;;4982403;28;20514;-76
2021/04/01 08:43:48;;;;;;;31.88;7.03;;;;;;;;;;4994811;28;20049;-80
2021/04/01 08:46:14;;;;;;;20.23;5.90;;;;;;;;;;4993901;28;20030;-76
2021/04/01 08:48:49;;;;;;;23.20;5.50;;;;;;;;;;4994262;28;20029;-82
2021/04/01 08:51:34;;;;;;;25.90;6.35;;;;;;;;;;4976497;28;20070;-77
2021/04/01 08:54:04;;;;;;;21.17;5.97;;;;;;;;;;4993748;28;20065;-76
2021/04/01 08:56:36;;;;;;;24.77;5.45;;;;;;;;;;4988054;28;20026;-75
2021/04/01 08:59:20;;;;;;;20.65;4.60;;;;;;;;;;4974294;28;20023;-76
2021/04/01 09:01:49;;;;;;;23.65;5.82;;;;;;;;;;4973600;28;20027;-76
2021/04/01 09:04:21;;;;;;;12.43;4.90;;;;;;;;;;4974369;28;20031;-79
2021/04/01 09:06:48;;;;;;;14.77;4.80;;;;;;;;;;4993513;28;20103;-80
2021/04/01 09:09:19;;;;;;;10.85;3.78;;;;;;;;;;4978660;28;20026;-79
2021/04/01 09:12:11;;;;;;;9.02;3.97;;;;;;;;;;4974614;28;20064;-79
2021/04/01 09:14:35;;;;;;;20.77;4.70;;;;;;;;;;5007104;28;20084;-83
2021/04/01 09:17:13;;;;;;;17.95;3.83;;;;;;;;;;4984516;28;20045;-81
2021/04/01 09:19:41;;;;;;;8.77;3.17;;;;;;;;;;4982058;28;20073;-78
2021/04/01 09:22:20;;;;;;;13.00;4.10;;;;;;;;;;5003997;28;20018;-85
2021/04/01 09:24:51;;;;;;;12.38;3.80;;;;;;;;;;5001804;28;20049;-77
2021/04/01 09:27:17;;;;;;;13.23;3.53;;;;;;;;;;4984981;28;20033;-77
2021/04/01 09:29:44;;;;;;;7.80;3.10;;;;;;;;;;4986316;28;20029;-80
2021/04/01 09:32:12;;;;;;;13.27;3.63;;;;;;;;;;4984477;28;20113;-77
2021/04/01 09:34:39;;;;;;;9.98;3.60;;;;;;;;;;5001998;28;20830;-81
2021/04/01 09:37:12;;;;;;;8.35;2.70;;;;;;;;;;4998934;28;20060;-77
2021/04/01 09:39:38;;;;;;;11.85;3.92;;;;;;;;;;4985202;28;20030;-81
2021/04/01 09:42:10;;;;;;;13.55;4.75;;;;;;;;;;5003788;28;20061;-82
2021/04/01 09:44:37;;;;;;;16.05;5.30;;;;;;;;;;5002357;28;20036;-76
2021/04/01 09:47:03;;;;;;;11.80;6.05;;;;;;;;;;4985900;28;20034;-76
2021/04/01 09:49:36;;;;;;;17.52;6.75;;;;;;;;;;5001179;28;20025;-80
2021/04/01 09:52:03;;;;;;;16.80;5.82;;;;;;;;;;5000981;28;20029;-80
2021/04/01 09:54:31;;;;;;;21.40;8.68;;;;;;;;;;4991092;28;20366;-87
2021/04/01 09:56:58;;;;;;;16.20;6.65;;;;;;;;;;4989319;28;20026;-83
2021/04/01 10:02:31;;;;;;;19.90;5.70;;;;;;;;;;5004920;28;20026;-86
2021/04/01 10:05:05;;;;;;;16.10;6.28;;;;;;;;;;4996078;28;20030;-84
2021/04/01 10:07:33;;;;;;;12.27;5.55;;;;;;;;;;5013893;28;20386;-82
2021/04/01 10:09:59;;;;;;;10.55;4.53;;;;;;;;;;5013710;28;20017;-87
2021/04/01 10:12:44;;;;;;;12.43;5.45;;;;;;;;;;4996036;28;20037;-82
2021/04/01 10:15:10;;;;;;;10.43;4.15;;;;;;;;;;5012892;28;20500;-81
2021/04/01 10:17:37;;;;;;;16.88;4.03;;;;;;;;;;5000316;28;20379;-82
2021/04/01 10:20:06;;;;;;;15.85;4.07;;;;;;;;;;5002983;28;20117;-83
2021/04/01 10:22:33;;;;;;;16.65;4.63;;;;;;;;;;5003812;28;20077;-75
2021/04/01 10:25:09;;;;;;;11.88;3.53;;;;;;;;;;5001822;28;20329;-76
2021/04/01 10:27:45;;;;;;;9.40;3.45;;;;;;;;;;5000950;28;20127;-80
2021/04/01 10:30:12;;;;;;;14.45;3.95;;;;;;;;;;4981048;28;20107;-76
2021/04/01 10:33:01;;;;;;;13.02;3.38;;;;;;;;;;4991072;28;20034;-78
2021/04/01 10:35:29;;;;;;;8.98;2.63;;;;;;;;;;4979467;28;20034;-75
2021/04/01 10:37:57;;;;;;;9.20;3.13;;;;;;;;;;4989342;28;20018;-77
2021/04/01 10:40:23;;;;;;;10.65;2.60;;;;;;;;;;4988671;28;20022;-75
2021/04/01 10:43:02;;;;;;;9.20;2.85;;;;;;;;;;4982280;28;20045;-77
2021/04/01 10:45:33;;;;;;;12.23;2.60;;;;;;;;;;4982036;28;20030;-76
2021/04/01 10:48:19;;;;;;;9.60;2.42;;;;;;;;;;4981586;28;20038;-75
2021/04/01 10:50:45;;;;;;;8.55;3.00;;;;;;;;;;4984833;28;20610;-77
2021/04/01 10:53:18;;;;;;;10.25;2.70;;;;;;;;;;4984637;28;20021;-75
2021/04/01 10:55:45;;;;;;;11.20;3.10;;;;;;;;;;4984271;28;20023;-74
2021/04/01 10:58:11;;;;;;;8.00;2.78;;;;;;;;;;4998355;28;20017;-76
2021/04/01 11:00:38;;;;;;;7.18;2.25;;;;;;;;;;4983759;28;20033;-77
2021/04/01 11:03:05;;;;;;;7.97;2.50;;;;;;;;;;4982089;28;20164;-74
2021/04/01 11:05:37;;;;;;;6.47;2.08;;;;;;;;;;5000258;28;20033;-75
2021/04/01 11:08:09;;;;;;;7.03;2.20;;;;;;;;;;4994404;28;20503;-80
2021/04/01 11:10:35;;;;;;;;;;;;;;;;;;4977206;28;20483;-77
2021/04/01 11:13:02;;;;;;;11.85;2.70;;;;;;;;;;4991718;28;19913;-87
2021/04/01 11:15:36;;;;;;;6.93;2.10;;;;;;;;;;4974668;28;20526;-78
2021/04/01 11:18:04;;;;;;;15.45;2.70;;;;;;;;;;4977250;28;20039;-79
2021/04/01 11:20:33;;;;;;;12.50;2.40;;;;;;;;;;4974680;28;20025;-84
2021/04/01 11:23:10;;;;;;;11.95;2.45;;;;;;;;;;4973380;28;20022;-85
2021/04/01 11:25:37;;;;;;;7.53;2.33;;;;;;;;;;4989361;28;20023;-84
2021/04/01 11:28:03;;;;;;;10.60;2.28;;;;;;;;;;4990250;28;20035;-82
2021/04/01 11:30:48;;;;;;;12.57;2.33;;;;;;;;;;4972786;28;20023;-84
2021/04/01 11:33:15;;;;;;;7.45;2.25;;;;;;;;;;4970854;28;20022;-83
2021/04/01 11:35:43;;;;;;;10.70;2.17;;;;;;;;;;4979797;28;20419;-81
2021/04/01 11:38:17;;;;;;;11.63;1.98;;;;;;;;;;4991574;28;20027;-81
2021/04/01 11:40:52;;;;;;;4.63;1.95;;;;;;;;;;4974064;28;20426;-82
2021/04/01 11:43:24;;;;;;;8.13;2.10;;;;;;;;;;4991683;28;20034;-81
2021/04/01 11:45:50;;;;;;;5.90;2.17;;;;;;;;;;4991359;28;20041;-81
2021/04/01 11:48:17;;;;;;;8.60;2.17;;;;;;;;;;4991667;28;20525;-81
2021/04/01 11:50:43;;;;;;;6.78;2.00;;;;;;;;;;4974019;28;20035;-81
2021/04/01 11:53:09;;;;;;;5.10;1.65;;;;;;;;;;4973978;28;20108;-80
2021/04/01 11:55:35;;;;;;;6.88;2.15;;;;;;;;;;4991680;28;20146;-81
2021/04/01 11:58:01;;;;;;;5.50;1.38;;;;;;;;;;4991537;28;20018;-81
2021/04/01 12:00:35;;;;;;;3.95;1.70;;;;;;;;;;4991600;28;20031;-82
2021/04/01 12:05:31;;;;;;;4.63;1.90;;;;;;;;;;4991633;28;20058;-82
2021/04/01 12:07:57;;;;;;;5.35;2.03;;;;;;;;;;4974119;28;20125;-82
2021/04/01 12:10:23;;;;;;;5.72;1.80;;;;;;;;;;4991435;28;20014;-80
2021/04/01 12:12:53;;;;;;;3.83;1.77;;;;;;;;;;4993877;28;20026;-83
2021/04/01 12:15:48;;;;;;;5.07;1.90;;;;;;;;;;4977608;28;20042;-83
2021/04/01 12:18:14;;;;;;;4.55;1.65;;;;;;;;;;4964915;28;20494;-82
2021/04/01 12:20:41;;;;;;;7.18;1.60;;;;;;;;;;4977436;28;20022;-81
2021/04/01 12:23:19;;;;;;;3.83;1.75;;;;;;;;;;4995457;28;20027;-82
2021/04/01 12:25:45;;;;;;;5.25;1.77;;;;;;;;;;4994688;28;20022;-82
2021/04/01 12:28:19;;;;;;;3.88;1.60;;;;;;;;;;4993211;28;20140;-81
2021/04/01 12:30:48;;;;;;;4.65;1.92;;;;;;;;;;4977077;28;20423;-82
2021/04/01 12:33:17;;;;;;;4.60;1.80;;;;;;;;;;4973308;28;20218;-81
2021/04/01 12:35:49;;;;;;;5.78;1.60;;;;;;;;;;4957886;28;20018;-82
2021/04/01 12:38:25;;;;;;;6.65;1.67;;;;;;;;;;4957836;28;20026;-82
2021/04/01 12:40:51;;;;;;;5.20;1.92;;;;;;;;;;4975512;28;20026;-80
2021/04/01 12:43:17;;;;;;;4.32;1.77;;;;;;;;;;4958633;28;20027;-81
2021/04/01 12:45:43;;;;;;;3.47;2.00;;;;;;;;;;4975372;28;20117;-79
2021/04/01 12:48:10;;;;;;;5.40;1.90;;;;;;;;;;4973963;28;20023;-81
2021/04/01 12:50:37;;;;;;;5.75;1.77;;;;;;;;;;4963783;28;20030;-81
2021/04/01 12:53:04;;;;;;;5.03;2.13;;;;;;;;;;4977104;28;20034;-80
2021/04/01 12:58:46;;;;;;;8.80;2.08;;;;;;;;;;4994627;28;20105;-81
2021/04/01 13:04:20;;;;;;;3.70;1.60;;;;;;;;;;4949592;28;20037;-81
2021/04/01 13:11:38;;;;;;;4.40;1.90;;;;;;;;;;4994492;28;20049;-81
2021/04/01 13:14:04;;;;;;;4.72;1.90;;;;;;;;;;4994348;28;20054;-79
2021/04/01 13:16:30;;;;;;;3.95;1.77;;;;;;;;;;4976607;28;20034;-80
2021/04/01 13:18:57;;;;;;;4.22;1.67;;;;;;;;;;4993816;28;20080;-80
2021/04/01 13:21:31;;;;;;;5.78;1.80;;;;;;;;;;4976833;28;20026;-80
2021/04/01 13:24:12;;;;;;;3.92;1.73;;;;;;;;;;4993836;28;20014;-80
2021/04/01 13:26:38;;;;;;;3.95;1.75;;;;;;;;;;4994014;28;20040;-80
2021/04/01 13:29:09;;;;;;;3.92;1.70;;;;;;;;;;4976943;28;20019;-80
2021/04/01 13:36:39;;;;;;;4.80;1.65;;;;;;;;;;4993685;28;20502;-80
2021/04/01 13:39:07;;;;;;;4.05;1.70;;;;;;;;;;4976426;28;20416;-80
2021/04/01 13:44:44;;;;;;;4.07;1.90;;;;;;;;;;4960446;28;20026;-79
2021/04/01 13:47:11;;;;;;;5.30;2.00;;;;;;;;;;4993527;28;20391;-79
2021/04/01 13:49:38;;;;;;;4.63;1.73;;;;;;;;;;4993541;28;20029;-80
2021/04/01 13:52:11;;;;;;;5.55;1.75;;;;;;;;;;4993121;28;20046;-80
2021/04/01 14:11:11;;;;;;;4.00;1.75;;;;;;;;;;4993521;28;20065;-79
2021/04/01 14:13:37;;;;;;;3.60;1.63;;;;;;;;;;4993045;28;20619;-79
2021/04/01 14:16:03;;;;;;;3.65;1.60;;;;;;;;;;4975031;28;20471;-80
2021/04/01 14:18:30;;;;;;;3.28;1.50;;;;;;;;;;4989971;28;20082;-79
2021/04/01 14:20:58;;;;;;;3.75;1.80;;;;;;;;;;4995124;28;20556;-79
2021/04/01 14:23:26;;;;;;;3.58;1.70;;;;;;;;;;5012602;28;20022;-79
2021/04/01 14:25:53;;;;;;;4.60;1.50;;;;;;;;;;4985364;28;20053;-80
2021/04/01 14:28:19;;;;;;;5.93;1.90;;;;;;;;;;4959534;28;20471;-80
2021/04/01 14:30:45;;;;;;;4.63;2.00;;;;;;;;;;4993099;28;20033;-79
2021/04/01 14:33:13;;;;;;;4.13;1.88;;;;;;;;;;4986898;28;20015;-79
2021/04/01 14:35:39;;;;;;;3.58;1.60;;;;;;;;;;4971319;28;20042;-79
2021/04/01 14:38:06;;;;;;;4.38;2.03;;;;;;;;;;4971900;28;20018;-79
2021/04/01 14:40:43;;;;;;;4.20;2.10;;;;;;;;;;4973393;28;20023;-79
2021/04/01 14:43:36;;;;;;;3.03;1.50;;;;;;;;;;4985084;28;20018;-78
2021/04/01 14:45:57;;;;;;;7.43;2.10;;;;;;;;;;4991962;28;20030;-79
2021/04/01 14:48:23;;;;;;;3.65;1.70;;;;;;;;;;4975216;28;20062;-79
2021/04/01 14:50:49;;;;;;;3.83;1.83;;;;;;;;;;4975218;28;20486;-78
2021/04/01 14:53:22;;;;;;;5.22;1.70;;;;;;;;;;4975400;28;20444;-79
2021/04/01 14:55:48;;;;;;;4.35;1.80;;;;;;;;;;4975309;28;20237;-79
2021/04/01 14:58:15;;;;;;;3.70;1.60;;;;;;;;;;4975205;28;20050;-79
2021/04/01 15:00:42;;;;;;;4.90;1.80;;;;;;;;;;4992573;28;20022;-78
2021/04/01 15:03:08;;;;;;;3.65;1.70;;;;;;;;;;4992443;28;20038;-78
2021/04/01 15:05:36;;;;;;;4.40;1.65;;;;;;;;;;4974905;28;20060;-78
2021/04/01 15:08:04;;;;;;;4.30;1.50;;;;;;;;;;4992360;28;20459;-78
2021/04/01 15:10:30;;;;;;;3.35;1.52;;;;;;;;;;4992501;28;20535;-79
2021/04/01 15:12:56;;;;;;;7.10;2.38;;;;;;;;;;4974856;28;20502;-78
2021/04/01 15:15:22;;;;;;;5.15;1.98;;;;;;;;;;4992454;28;20018;-78
2021/04/01 15:17:48;;;;;;;5.78;2.50;;;;;;;;;;4974787;28;20058;-79
2021/04/01 15:20:17;;;;;;;4.18;1.55;;;;;;;;;;4992468;28;20087;-79
2021/04/01 15:22:43;;;;;;;4.70;1.98;;;;;;;;;;4991823;28;20379;-78
2021/04/01 15:25:10;;;;;;;8.48;2.63;;;;;;;;;;4974542;28;20018;-78
2021/04/01 15:27:36;;;;;;;5.68;2.22;;;;;;;;;;4992463;28;20360;-78
2021/04/01 15:30:02;;;;;;;4.07;1.98;;;;;;;;;;4992283;28;20026;-78
2021/04/01 15:32:28;;;;;;;5.38;2.55;;;;;;;;;;4992414;28;20026;-78
2021/04/01 15:34:55;;;;;;;5.05;1.80;;;;;;;;;;4991695;28;20077;-78
2021/04/01 15:37:21;;;;;;;4.68;1.77;;;;;;;;;;4992105;28;20030;-78
2021/04/01 15:39:47;;;;;;;3.97;1.67;;;;;;;;;;4992116;28;20468;-78
2021/04/01 15:42:17;;;;;;;4.18;1.98;;;;;;;;;;4992344;28;20535;-78
2021/04/01 15:44:44;;;;;;;6.75;2.63;;;;;;;;;;4992343;28;20142;-78
2021/04/01 15:47:10;;;;;;;5.32;2.25;;;;;;;;;;4975748;28;20482;-78
2021/04/01 15:49:37;;;;;;;3.33;1.73;;;;;;;;;;4978433;28;20034;-77
2021/04/01 15:52:03;;;;;;;3.63;1.70;;;;;;;;;;4978189;28;20497;-77
2021/04/01 15:54:29;;;;;;;5.75;2.20;;;;;;;;;;4978269;28;20033;-78
2021/04/01 15:56:55;;;;;;;4.85;2.42;;;;;;;;;;4978269;28;20024;-78
2021/04/01 15:59:21;;;;;;;4.68;2.13;;;;;;;;;;4978126;28;20238;-77
2021/04/01 16:01:47;;;;;;;4.03;2.08;;;;;;;;;;4978185;28;20666;-77
2021/04/01 16:04:13;;;;;;;5.75;2.60;;;;;;;;;;4995721;28;20030;-77
2021/04/01 16:06:39;;;;;;;7.47;2.28;;;;;;;;;;4978012;28;20034;-77
2021/04/01 16:09:06;;;;;;;3.72;1.60;;;;;;;;;;4995346;28;20066;-78
2021/04/01 16:11:32;;;;;;;4.13;2.00;;;;;;;;;;4995551;28;20038;-77
2021/04/01 16:13:58;;;;;;;3.70;1.77;;;;;;;;;;4977955;28;20030;-77
2021/04/01 16:16:25;;;;;;;4.25;2.03;;;;;;;;;;4977895;28;20034;-77
2021/04/01 16:18:51;;;;;;;4.03;1.83;;;;;;;;;;4995574;28;20038;-77
2021/04/01 16:21:17;;;;;;;6.07;2.17;;;;;;;;;;4977697;28;20450;-77
2021/04/01 16:23:43;;;;;;;3.90;2.17;;;;;;;;;;4995368;28;20057;-77
2021/04/01 16:26:10;;;;;;;3.67;1.88;;;;;;;;;;4994850;28;20066;-77
2021/04/01 16:28:37;;;;;;;3.63;1.88;;;;;;;;;;4977782;28;20109;-77
2021/04/01 16:31:03;;;;;;;2.72;1.40;;;;;;;;;;4995026;28;20101;-77
2021/04/01 16:33:31;;;;;;;3.05;1.60;;;;;;;;;;4973927;28;20022;-77
2021/04/01 16:35:57;;;;;;;5.43;1.77;;;;;;;;;;4958214;28;20431;-78
2021/04/01 16:38:23;;;;;;;4.50;1.67;;;;;;;;;;4975700;28;20030;-77
2021/04/01 16:40:50;;;;;;;5.38;1.60;;;;;;;;;;4959000;28;20110;-77
2021/04/01 16:43:17;;;;;;;12.15;2.63;;;;;;;;;;4975679;28;20027;-75
2021/04/01 16:45:44;;;;;;;10.18;2.25;;;;;;;;;;4973817;28;20391;-73
2021/04/01 16:48:10;;;;;;;18.70;3.05;;;;;;;;;;4991559;28;20088;-76
2021/04/01 16:50:36;;;;;;;12.43;2.20;;;;;;;;;;4993880;28;20018;-74
2021/04/01 16:53:18;;;;;;;21.35;2.85;;;;;;;;;;4994150;28;20098;-74
2021/04/01 16:55:48;;;;;;;12.98;2.97;;;;;;;;;;4994354;28;20030;-74
2021/04/01 16:58:16;;;;;;;14.35;3.08;;;;;;;;;;4993207;28;20026;-73
2021/04/01 17:00:42;;;;;;;18.90;3.22;;;;;;;;;;4994494;28;20018;-74
2021/04/01 17:03:08;;;;;;;11.43;2.92;;;;;;;;;;4994412;28;20033;-75